Time;durP1;ratioP1;P1;durP2;ratioP2;P2;SDS_P1;SDS_P2;PMS_P1;PMS_P2;Temp;Humidity;BMP_temperature;BMP_pressure;BME280_temperature;BME280_humidity;BME280_pressure;Samples;Min_cycle;Max_cycle;Signal;HPM_P1;HPM_P2
2022/05/17 00:02:08;;;;;;;21.52;13.50;;;15.80;99.90;;;;;;5048590;28;20056;-72
2022/05/17 00:04:34;;;;;;;24.58;12.82;;;15.80;99.90;;;;;;5049775;28;20053;-72
2022/05/17 00:07:01;;;;;;;19.23;12.20;;;15.70;99.90;;;;;;5047700;28;20049;-72
2022/05/17 00:09:27;;;;;;;28.80;14.43;;;15.70;99.90;;;;;;5035363;28;20048;-72
2022/05/17 00:11:56;;;;;;;23.85;12.23;;;15.60;99.90;;;;;;5051640;28;20087;-72
2022/05/17 00:14:22;;;;;;;21.83;12.00;;;15.60;99.90;;;;;;5049499;28;20559;-72
2022/05/17 00:16:48;;;;;;;23.42;14.93;;;15.60;99.90;;;;;;5049463;28;20076;-72
2022/05/17 00:19:16;;;;;;;20.65;12.68;;;15.50;99.90;;;;;;5050302;28;20060;-72
2022/05/17 00:21:43;;;;;;;19.20;12.52;;;15.50;99.90;;;;;;5049035;28;20167;-72
2022/05/17 00:24:09;;;;;;;31.08;14.45;;;15.40;99.90;;;;;;5049034;28;20545;-72
2022/05/17 00:26:35;;;;;;;21.48;12.60;;;15.30;99.90;;;;;;5048972;28;20059;-72
2022/05/17 00:29:02;;;;;;;23.77;11.35;;;15.30;99.90;;;;;;5047073;28;20045;-72
2022/05/17 00:31:28;;;;;;;26.95;14.10;;;15.30;99.90;;;;;;5039798;28;20033;-72
2022/05/17 00:33:53;;;;;;;30.35;13.23;;;15.20;99.90;;;;;;5050365;28;20048;-72
2022/05/17 00:36:20;;;;;;;24.85;13.38;;;15.20;99.90;;;;;;5050178;28;20041;-72
2022/05/17 00:38:46;;;;;;;16.33;12.00;;;15.20;99.90;;;;;;5048658;28;20513;-72
2022/05/17 00:41:12;;;;;;;25.25;12.10;;;15.20;99.90;;;;;;5046102;28;20044;-72
2022/05/17 00:46:43;;;;;;;17.27;10.90;;;15.20;99.90;;;;;;5048858;28;20065;-72
2022/05/17 00:49:11;;;;;;;21.65;11.60;;;15.10;99.90;;;;;;5048344;28;20072;-72
2022/05/17 00:51:39;;;;;;;30.08;12.90;;;15.00;99.90;;;;;;5048546;28;20698;-72
2022/05/17 00:54:07;;;;;;;28.85;13.90;;;15.00;99.90;;;;;;5049241;28;20391;-72
2022/05/17 00:56:38;;;;;;;21.17;11.82;;;14.90;99.90;;;;;;5048404;28;20044;-72
2022/05/17 00:59:07;;;;;;;25.63;12.35;;;14.90;99.90;;;;;;5049761;28;20053;-72
2022/05/17 01:01:33;;;;;;;21.10;12.98;;;14.90;99.90;;;;;;5048179;28;20057;-72
2022/05/17 01:04:19;;;;;;;23.98;13.00;;;14.90;99.90;;;;;;5047457;28;20446;-71
2022/05/17 01:06:51;;;;;;;28.52;13.05;;;14.80;99.90;;;;;;5049177;28;20056;-72
2022/05/17 01:09:18;;;;;;;23.67;13.55;;;14.80;99.90;;;;;;5048856;28;20040;-71
2022/05/17 01:11:44;;;;;;;27.15;14.40;;;14.80;99.90;;;;;;5049872;28;20052;-71
2022/05/17 01:16:57;;;;;;;29.42;15.05;;;14.80;99.90;;;;;;5047618;28;20083;-72
2022/05/17 01:19:23;;;;;;;24.55;14.02;;;14.70;99.90;;;;;;5038892;28;20057;-72
2022/05/17 01:21:49;;;;;;;28.20;13.85;;;14.70;99.90;;;;;;5047888;28;20049;-71
2022/05/17 01:24:14;;;;;;;27.90;16.52;;;14.70;99.90;;;;;;5042374;28;20057;-71
2022/05/17 01:26:43;;;;;;;29.80;14.43;;;14.60;99.90;;;;;;5040730;28;20049;-71
2022/05/17 01:29:10;;;;;;;30.60;16.98;;;14.60;99.90;;;;;;5044465;28;20041;-71
2022/05/17 01:31:38;;;;;;;38.75;16.73;;;14.60;99.90;;;;;;5040351;28;20379;-73
2022/05/17 01:34:07;;;;;;;28.20;16.20;;;14.60;99.90;;;;;;5044023;28;20065;-72
2022/05/17 01:36:34;;;;;;;33.65;15.68;;;14.60;99.90;;;;;;5047742;28;20057;-72
2022/05/17 01:39:00;;;;;;;34.22;15.90;;;14.60;99.90;;;;;;5047572;28;20048;-72
2022/05/17 01:41:25;;;;;;;34.08;18.27;;;14.50;99.90;;;;;;5043921;28;20097;-72
2022/05/17 01:43:53;;;;;;;33.75;18.10;;;14.50;99.90;;;;;;5048480;28;20044;-72
2022/05/17 01:46:18;;;;;;;29.67;19.00;;;14.50;99.90;;;;;;5048879;28;20461;-72
2022/05/17 01:48:44;;;;;;;30.27;18.77;;;14.40;99.90;;;;;;5047260;28;20057;-72
2022/05/17 01:51:10;;;;;;;35.50;18.10;;;14.40;99.90;;;;;;5047861;28;20131;-72
2022/05/17 01:53:36;;;;;;;34.17;18.70;;;14.40;99.90;;;;;;5048275;28;20493;-72
2022/05/17 01:56:06;;;;;;;34.58;17.40;;;14.40;99.90;;;;;;5048663;28;20037;-72
2022/05/17 01:58:32;;;;;;;33.30;19.33;;;14.40;99.90;;;;;;5048852;28;20079;-72
2022/05/17 02:00:58;;;;;;;37.28;19.30;;;14.40;99.90;;;;;;5047207;28;20087;-72
2022/05/17 02:03:25;;;;;;;34.28;20.60;;;14.40;99.90;;;;;;5048675;28;20080;-72
2022/05/17 02:05:51;;;;;;;22.15;16.60;;;14.30;99.90;;;;;;5030232;28;20107;-72
2022/05/17 02:08:17;;;;;;;27.45;17.75;;;14.30;99.90;;;;;;5028425;28;20446;-72
2022/05/17 02:10:43;;;;;;;39.55;21.23;;;14.30;99.90;;;;;;5027327;28;20095;-72
2022/05/17 02:13:09;;;;;;;25.40;18.38;;;14.20;99.90;;;;;;5028879;28;20057;-72
2022/05/17 02:15:36;;;;;;;30.98;19.58;;;14.20;99.90;;;;;;5041370;28;20167;-72
2022/05/17 02:18:01;;;;;;;29.90;19.88;;;14.20;99.90;;;;;;5048837;28;20495;-72
2022/05/17 02:20:27;;;;;;;30.90;19.35;;;14.10;99.90;;;;;;5052563;28;20053;-72
2022/05/17 02:22:53;;;;;;;31.17;19.15;;;14.20;99.90;;;;;;5053411;28;20099;-72
2022/05/17 02:25:19;;;;;;;41.72;20.15;;;14.10;99.90;;;;;;5053733;28;20099;-72
2022/05/17 02:27:44;;;;;;;25.20;18.10;;;14.10;99.90;;;;;;5048980;28;20049;-72
2022/05/17 02:30:12;;;;;;;31.58;19.27;;;14.10;99.90;;;;;;5034905;28;20057;-72
2022/05/17 02:32:38;;;;;;;30.60;17.45;;;14.10;99.90;;;;;;5048004;28;20048;-72
2022/05/17 02:35:05;;;;;;;31.77;18.98;;;14.10;99.90;;;;;;5051582;28;20053;-72
2022/05/17 02:37:31;;;;;;;35.15;19.73;;;14.10;99.90;;;;;;5052522;28;20048;-72
2022/05/17 02:39:56;;;;;;;31.17;20.50;;;14.00;99.90;;;;;;5050644;28;20493;-72
2022/05/17 02:42:22;;;;;;;32.15;19.77;;;14.10;99.90;;;;;;5046848;28;20045;-72
2022/05/17 02:44:48;;;;;;;29.33;20.50;;;14.00;99.90;;;;;;5050066;28;20040;-73
2022/05/17 02:47:14;;;;;;;32.72;20.92;;;14.00;99.90;;;;;;5051812;28;20063;-72
2022/05/17 02:49:44;;;;;;;36.33;19.45;;;13.90;99.90;;;;;;5051640;28;20052;-73
2022/05/17 02:52:11;;;;;;;31.90;18.17;;;14.00;99.90;;;;;;5051861;28;20049;-72
2022/05/17 02:54:37;;;;;;;34.50;20.20;;;13.90;99.90;;;;;;5051633;28;20049;-73
2022/05/17 02:57:04;;;;;;;32.65;20.25;;;13.90;99.90;;;;;;5051076;28;20123;-73
2022/05/17 02:59:31;;;;;;;37.67;21.98;;;13.80;99.90;;;;;;5047194;28;20099;-72
2022/05/17 03:01:57;;;;;;;40.22;20.83;;;13.80;99.90;;;;;;5050620;28;20422;-73
2022/05/17 03:04:23;;;;;;;40.42;19.90;;;13.80;99.90;;;;;;5050001;28;20041;-72
2022/05/17 03:06:48;;;;;;;34.05;20.48;;;13.80;99.90;;;;;;5033809;28;20045;-73
2022/05/17 03:09:14;;;;;;;37.97;20.48;;;13.80;99.90;;;;;;5050655;28;20045;-73
2022/05/17 03:11:42;;;;;;;32.13;19.98;;;13.80;99.90;;;;;;5042582;28;20053;-73
2022/05/17 03:14:08;;;;;;;28.92;18.67;;;13.80;99.90;;;;;;5046291;28;20045;-73
2022/05/17 03:16:34;;;;;;;34.42;18.55;;;13.70;99.90;;;;;;5050507;28;20053;-73
2022/05/17 03:19:01;;;;;;;30.80;18.67;;;13.70;99.90;;;;;;5050120;28;20053;-73
2022/05/17 03:21:27;;;;;;;39.15;19.27;;;13.60;99.90;;;;;;5033685;28;20461;-74
2022/05/17 03:23:53;;;;;;;39.22;19.13;;;13.60;99.90;;;;;;5051349;28;20128;-74
2022/05/17 03:26:20;;;;;;;26.98;18.40;;;13.60;99.90;;;;;;5050809;28;20119;-74
2022/05/17 03:28:46;;;;;;;38.72;17.48;;;13.60;99.90;;;;;;5046430;28;20045;-73
2022/05/17 03:31:12;;;;;;;45.92;19.80;;;13.60;99.90;;;;;;5034800;28;20075;-74
2022/05/17 03:33:39;;;;;;;35.22;20.20;;;13.60;99.90;;;;;;5049944;28;20083;-73
2022/05/17 03:36:06;;;;;;;29.75;20.02;;;13.60;99.90;;;;;;5050244;28;20630;-74
2022/05/17 03:38:33;;;;;;;28.35;16.38;;;13.60;99.90;;;;;;5049912;28;20064;-74
2022/05/17 03:40:58;;;;;;;29.52;16.63;;;13.60;99.90;;;;;;5050793;28;20060;-74
2022/05/17 03:43:27;;;;;;;40.25;18.42;;;13.50;99.90;;;;;;5049614;28;20048;-74
2022/05/17 03:45:53;;;;;;;31.02;17.83;;;13.50;99.90;;;;;;5048870;28;20048;-74
2022/05/17 03:48:19;;;;;;;32.72;17.95;;;13.50;99.90;;;;;;5050871;28;20105;-74
2022/05/17 03:50:45;;;;;;;31.13;17.00;;;13.50;99.90;;;;;;5050726;28;20667;-74
2022/05/17 03:53:11;;;;;;;28.85;15.70;;;13.50;99.90;;;;;;5049819;28;20596;-75
2022/05/17 03:55:37;;;;;;;31.17;16.67;;;13.40;99.90;;;;;;5049406;28;20044;-74
2022/05/17 03:58:03;;;;;;;33.05;18.13;;;13.50;99.90;;;;;;5050653;28;20045;-74
2022/05/17 04:00:29;;;;;;;31.58;17.27;;;13.40;99.90;;;;;;5048751;28;20064;-74
2022/05/17 04:02:55;;;;;;;29.15;16.90;;;13.50;99.90;;;;;;5049691;28;20045;-74
2022/05/17 04:05:21;;;;;;;30.35;16.95;;;13.50;99.90;;;;;;5037125;28;20160;-74
2022/05/17 04:07:46;;;;;;;27.73;16.88;;;13.50;99.90;;;;;;5050706;28;20136;-74
2022/05/17 04:10:14;;;;;;;33.50;17.45;;;13.50;99.90;;;;;;5049693;28;20056;-74
2022/05/17 04:12:40;;;;;;;34.47;17.38;;;13.70;99.90;;;;;;5036766;28;20057;-75
2022/05/17 04:15:10;;;;;;;33.58;17.05;;;13.80;99.90;;;;;;5049717;28;20072;-74
2022/05/17 04:17:36;;;;;;;33.85;17.70;;;14.00;99.90;;;;;;5048682;28;20130;-74
2022/05/17 04:20:02;;;;;;;27.08;16.67;;;14.20;99.90;;;;;;5050325;28;20107;-75
2022/05/17 04:22:28;;;;;;;36.33;17.65;;;14.30;99.90;;;;;;5049108;28;20045;-74
2022/05/17 04:24:55;;;;;;;31.38;16.23;;;14.50;99.90;;;;;;5049234;28;20383;-74
2022/05/17 04:27:22;;;;;;;32.67;17.07;;;14.60;99.90;;;;;;5050287;28;20115;-74
2022/05/17 04:29:48;;;;;;;24.52;16.95;;;14.60;99.90;;;;;;5049726;28;20052;-74
2022/05/17 04:32:14;;;;;;;40.10;17.77;;;14.50;99.90;;;;;;5050272;28;20053;-74
2022/05/17 04:34:39;;;;;;;26.40;15.98;;;14.50;99.90;;;;;;5050446;28;20049;-75
2022/05/17 04:37:05;;;;;;;24.75;17.70;;;14.40;99.90;;;;;;5051027;28;20486;-74
2022/05/17 04:39:31;;;;;;;31.90;17.77;;;14.30;99.90;;;;;;5050422;28;20044;-75
2022/05/17 04:41:58;;;;;;;33.95;18.15;;;14.40;99.90;;;;;;5047068;28;20460;-74
2022/05/17 04:44:23;;;;;;;25.58;16.85;;;14.30;99.90;;;;;;5043218;28;20053;-75
2022/05/17 04:46:49;;;;;;;32.08;17.98;;;14.40;99.90;;;;;;5044498;28;20048;-75
2022/05/17 04:49:15;;;;;;;35.20;17.70;;;14.40;99.90;;;;;;5048291;28;20098;-74
2022/05/17 04:51:41;;;;;;;31.23;18.00;;;14.40;99.90;;;;;;5048874;28;20055;-75
2022/05/17 04:54:06;;;;;;;40.22;20.85;;;14.40;99.90;;;;;;5047996;28;20045;-75
2022/05/17 04:56:34;;;;;;;29.52;17.08;;;14.40;99.90;;;;;;5048387;28;20047;-75
2022/05/17 04:59:00;;;;;;;36.17;19.35;;;14.40;99.90;;;;;;5049650;28;20120;-74
2022/05/17 05:01:26;;;;;;;34.40;18.58;;;14.50;99.90;;;;;;5049528;28;20159;-74
2022/05/17 05:03:52;;;;;;;35.17;18.38;;;14.40;99.90;;;;;;5043923;28;20128;-74
2022/05/17 05:06:17;;;;;;;34.53;19.73;;;14.50;99.90;;;;;;5048176;28;20051;-74
2022/05/17 05:08:43;;;;;;;34.13;17.67;;;14.50;99.90;;;;;;5047934;28;20461;-75
2022/05/17 05:11:09;;;;;;;31.73;17.65;;;14.60;99.90;;;;;;5050181;28;20049;-75
2022/05/17 05:13:34;;;;;;;36.65;17.88;;;14.60;99.90;;;;;;5047997;28;20060;-75
2022/05/17 05:16:00;;;;;;;31.85;19.20;;;14.70;99.90;;;;;;5045603;28;20444;-75
2022/05/17 05:18:26;;;;;;;28.20;17.25;;;14.70;99.90;;;;;;5048086;28;20063;-75
2022/05/17 05:21:05;;;;;;;34.83;19.10;;;14.70;99.90;;;;;;5049317;28;20413;-75
2022/05/17 05:23:31;;;;;;;26.27;16.55;;;14.70;99.90;;;;;;5046987;28;20050;-75
2022/05/17 05:26:00;;;;;;;23.40;17.38;;;14.70;99.90;;;;;;5047772;28;20052;-76
2022/05/17 05:28:26;;;;;;;36.90;18.08;;;14.70;99.90;;;;;;5048124;28;20131;-74
2022/05/17 05:30:54;;;;;;;34.30;18.05;;;14.70;99.90;;;;;;5048137;28;20056;-75
2022/05/17 05:33:21;;;;;;;26.45;17.60;;;14.70;99.90;;;;;;5048822;28;20041;-76
2022/05/17 05:35:46;;;;;;;30.83;16.20;;;14.80;99.90;;;;;;5049133;28;20590;-75
2022/05/17 05:38:12;;;;;;;31.35;17.27;;;14.80;99.90;;;;;;5048754;28;20056;-75
2022/05/17 05:40:38;;;;;;;26.05;17.02;;;14.80;99.90;;;;;;5044886;28;20036;-74
2022/05/17 05:43:04;;;;;;;31.58;16.95;;;14.90;99.90;;;;;;5042897;28;20097;-75
2022/05/17 05:45:31;;;;;;;30.55;18.52;;;14.90;99.90;;;;;;5038468;28;20052;-75
2022/05/17 05:47:57;;;;;;;31.43;16.93;;;14.90;99.90;;;;;;5048707;28;20057;-75
2022/05/17 05:50:24;;;;;;;23.08;16.45;;;14.90;99.90;;;;;;5046668;28;20052;-74
2022/05/17 05:52:49;;;;;;;28.05;17.17;;;15.00;99.90;;;;;;5043053;28;20037;-74
2022/05/17 05:55:21;;;;;;;20.38;17.52;;;15.00;99.90;;;;;;5035140;28;20056;-73
2022/05/17 05:57:48;;;;;;;26.67;16.77;;;15.10;99.90;;;;;;5043993;28;20041;-72
2022/05/17 06:00:15;;;;;;;34.58;17.00;;;15.10;99.90;;;;;;5047378;28;20426;-73
2022/05/17 06:02:41;;;;;;;26.25;17.58;;;15.20;99.90;;;;;;5046112;28;20103;-74
2022/05/17 06:05:08;;;;;;;36.38;16.95;;;15.30;99.90;;;;;;5037794;28;20131;-74
2022/05/17 06:07:35;;;;;;;28.25;15.70;;;15.30;99.90;;;;;;5044136;28;20071;-75
2022/05/17 06:10:03;;;;;;;29.08;17.98;;;15.40;99.90;;;;;;5045139;28;20083;-72
2022/05/17 06:12:28;;;;;;;30.57;17.47;;;15.50;99.90;;;;;;5046396;28;20449;-72
2022/05/17 06:14:54;;;;;;;28.60;14.05;;;15.60;99.90;;;;;;5048493;28;20044;-71
2022/05/17 06:17:24;;;;;;;26.52;15.13;;;15.60;99.90;;;;;;5046468;28;20524;-73
2022/05/17 06:19:50;;;;;;;26.75;15.10;;;15.70;99.90;;;;;;5042910;28;20044;-74
2022/05/17 06:22:16;;;;;;;28.83;16.67;;;15.70;99.90;;;;;;5046654;28;20060;-73
2022/05/17 06:24:42;;;;;;;33.38;16.38;;;15.80;99.90;;;;;;5047098;28;20048;-74
2022/05/17 06:27:07;;;;;;;24.58;15.00;;;15.80;99.90;;;;;;5046381;28;20084;-72
2022/05/17 06:29:33;;;;;;;25.15;14.88;;;15.80;99.90;;;;;;5028636;28;20037;-72
2022/05/17 06:31:59;;;;;;;21.48;13.65;;;15.90;99.90;;;;;;5036636;28;20042;-73
2022/05/17 06:34:24;;;;;;;26.77;14.13;;;16.00;99.90;;;;;;5039120;28;20102;-71
2022/05/17 06:36:50;;;;;;;23.25;14.20;;;16.10;99.90;;;;;;5038555;28;20057;-71
2022/05/17 06:39:16;;;;;;;34.45;13.90;;;16.20;99.90;;;;;;5038895;28;20077;-71
2022/05/17 06:41:43;;;;;;;32.60;15.02;;;16.30;99.90;;;;;;5045864;28;20052;-72
2022/05/17 06:44:08;;;;;;;27.90;14.20;;;16.50;99.90;;;;;;5048161;28;20102;-71
2022/05/17 06:46:36;;;;;;;25.55;13.10;;;16.60;99.90;;;;;;5046024;28;20049;-72
2022/05/17 06:49:06;;;;;;;26.20;13.80;;;16.80;99.90;;;;;;5049451;28;20486;-72
2022/05/17 06:51:35;;;;;;;21.50;12.07;;;17.00;99.90;;;;;;5044472;28;20092;-72
2022/05/17 06:54:00;;;;;;;23.63;14.10;;;17.20;99.90;;;;;;5042283;28;20049;-72
2022/05/17 06:56:26;;;;;;;24.98;11.80;;;17.40;99.90;;;;;;5044116;28;20044;-72
2022/05/17 06:58:52;;;;;;;20.38;11.65;;;17.50;99.90;;;;;;5039139;28;20383;-72
2022/05/17 07:01:17;;;;;;;27.27;12.38;;;17.70;99.90;;;;;;5041117;28;20129;-72
2022/05/17 07:03:44;;;;;;;28.00;13.35;;;17.90;99.90;;;;;;5044015;28;20056;-72
2022/05/17 07:06:10;;;;;;;20.20;11.00;;;18.10;99.90;;;;;;5047620;28;20605;-71
2022/05/17 07:08:35;;;;;;;15.50;10.25;;;18.30;99.90;;;;;;5037384;28;20041;-72
2022/05/17 07:13:45;;;;;;;15.35;9.55;;;18.70;99.90;;;;;;5062882;28;20057;-72
2022/05/17 07:16:11;;;;;;;24.70;11.93;;;18.90;99.90;;;;;;5050911;28;20044;-72
2022/05/17 07:18:36;;;;;;;16.13;8.95;;;19.10;99.90;;;;;;5045445;28;20049;-71
2022/05/17 07:21:02;;;;;;;23.90;11.35;;;19.30;99.90;;;;;;5051229;28;20053;-72
2022/05/17 07:23:28;;;;;;;28.05;11.13;;;19.50;99.90;;;;;;5050306;28;20037;-72
2022/05/17 07:25:54;;;;;;;22.85;10.90;;;19.80;99.90;;;;;;5050089;28;20037;-72
2022/05/17 07:28:22;;;;;;;21.50;10.35;;;20.00;99.90;;;;;;5038567;28;20053;-72
2022/05/17 07:30:49;;;;;;;18.00;9.93;;;20.20;99.90;;;;;;5046817;28;20453;-71
2022/05/17 07:33:15;;;;;;;21.08;10.32;;;20.40;99.90;;;;;;5051207;28;20041;-71
2022/05/17 07:35:41;;;;;;;19.85;9.05;;;20.50;99.90;;;;;;5048635;28;20081;-73
2022/05/17 07:38:07;;;;;;;22.30;9.90;;;20.70;99.90;;;;;;5045738;28;20084;-73
2022/05/17 07:40:33;;;;;;;18.58;9.90;;;20.70;99.90;;;;;;5049673;28;20506;-73
2022/05/17 07:43:00;;;;;;;15.27;9.38;;;20.80;99.90;;;;;;5050056;28;20147;-73
2022/05/17 07:45:25;;;;;;;14.20;9.20;;;21.00;99.90;;;;;;5050327;28;20071;-72
2022/05/17 07:47:51;;;;;;;15.73;9.82;;;21.00;99.90;;;;;;5047939;28;20483;-74
2022/05/17 07:50:17;;;;;;;19.58;9.60;;;21.00;99.90;;;;;;5044955;28;20049;-74
2022/05/17 07:52:43;;;;;;;18.00;9.82;;;21.10;99.90;;;;;;5048461;28;20056;-76
2022/05/17 07:55:12;;;;;;;14.88;9.40;;;21.10;99.90;;;;;;5049261;28;20084;-71
2022/05/17 07:57:39;;;;;;;18.13;9.30;;;21.30;99.90;;;;;;5048388;28;20040;-71
2022/05/17 08:00:09;;;;;;;17.02;7.70;;;21.30;99.90;;;;;;5047776;28;20088;-71
2022/05/17 08:02:34;;;;;;;18.75;7.60;;;21.50;99.90;;;;;;5049377;28;20107;-71
2022/05/17 08:05:01;;;;;;;16.77;8.95;;;21.70;99.90;;;;;;5048739;28;20062;-71
2022/05/17 08:07:26;;;;;;;17.52;8.80;;;21.90;99.90;;;;;;5050584;28;20037;-71
2022/05/17 08:09:52;;;;;;;14.80;7.63;;;22.10;99.90;;;;;;5050380;28;20498;-72
2022/05/17 08:12:18;;;;;;;21.63;9.15;;;22.30;99.90;;;;;;5050732;28;20041;-71
2022/05/17 08:14:44;;;;;;;10.27;7.13;;;22.50;99.90;;;;;;5049650;28;20486;-72
2022/05/17 08:17:10;;;;;;;19.30;7.38;;;22.60;99.90;;;;;;5050008;28;20052;-72
2022/05/17 08:19:37;;;;;;;24.75;8.23;;;22.70;99.90;;;;;;5048594;28;20453;-72
2022/05/17 08:22:10;;;;;;;19.98;7.60;;;22.70;99.90;;;;;;5049108;28;20111;-72
2022/05/17 08:27:40;;;;;;;15.15;7.03;;;22.80;99.90;;;;;;5050220;28;20064;-72
2022/05/17 08:30:16;;;;;;;15.73;6.60;;;23.00;99.90;;;;;;5049189;28;20167;-72
2022/05/17 08:35:39;;;;;;;15.13;6.28;;;23.10;99.90;;;;;;5050138;28;20132;-72
2022/05/17 08:38:05;;;;;;;12.02;6.47;;;23.30;99.90;;;;;;5048820;28;20494;-73
2022/05/17 08:40:38;;;;;;;16.27;5.68;;;23.60;99.90;;;;;;5047153;28;20215;-72
2022/05/17 08:43:23;;;;;;;17.85;5.15;;;23.40;99.90;;;;;;5030620;28;20276;-72
2022/05/17 08:46:32;;;;;;;22.30;6.18;;;23.50;99.90;;;;;;5040044;28;20045;-72
2022/05/17 08:49:26;;;;;;;10.02;5.78;;;23.60;99.90;;;;;;5001864;28;20410;-72
2022/05/17 08:52:09;;;;;;;15.02;5.95;;;23.80;99.90;;;;;;5050189;28;20152;-72
2022/05/17 08:54:37;;;;;;;15.80;4.50;;;24.10;99.90;;;;;;5029696;28;20851;-71
2022/05/17 08:57:26;;;;;;;13.27;4.93;;;24.10;99.90;;;;;;5028669;28;20048;-71
2022/05/17 08:59:52;;;;;;;13.95;4.93;;;24.20;99.90;;;;;;5036412;28;20060;-71
2022/05/17 09:02:40;;;;;;;10.38;5.05;;;24.40;99.90;;;;;;5050897;28;20049;-71
2022/05/17 09:05:29;;;;;;;12.85;5.40;;;24.40;99.90;;;;;;5049635;28;20577;-71
2022/05/17 09:08:13;;;;;;;14.95;4.90;;;24.50;99.90;;;;;;5049522;28;20088;-71
2022/05/17 09:10:44;;;;;;;10.88;4.78;;;24.60;99.90;;;;;;5049670;28;20409;-72
2022/05/17 09:13:27;;;;;;;8.20;4.63;;;24.50;99.90;;;;;;5048841;28;20131;-72
2022/05/17 09:15:57;;;;;;;6.75;4.18;;;24.50;99.90;;;;;;5049792;28;20128;-72
2022/05/17 09:18:23;;;;;;;12.75;4.60;;;24.50;98.30;;;;;;5048212;28;20120;-72
2022/05/17 09:20:50;;;;;;;8.43;4.57;;;24.60;99.70;;;;;;5049577;28;20409;-73
2022/05/17 09:23:16;;;;;;;10.85;4.45;;;24.60;99.90;;;;;;5048845;28;20051;-72
2022/05/17 09:25:56;;;;;;;7.53;3.53;;;24.80;99.90;;;;;;5047769;28;20037;-72
2022/05/17 09:28:50;;;;;;;9.57;4.05;;;24.80;87.60;;;;;;5048660;28;20131;-71
2022/05/17 09:31:32;;;;;;;11.60;4.20;;;25.00;93.30;;;;;;5049002;28;20084;-72
2022/05/17 09:34:00;;;;;;;12.05;4.47;;;25.10;83.90;;;;;;5049455;28;20053;-72
2022/05/17 09:36:32;;;;;;;16.95;5.13;;;25.20;93.50;;;;;;5047787;28;20128;-73
2022/05/17 09:39:00;;;;;;;15.60;4.20;;;25.40;91.30;;;;;;5045894;28;20052;-73
2022/05/17 09:41:29;;;;;;;9.57;4.05;;;25.30;84.70;;;;;;5049012;28;20052;-72
2022/05/17 09:44:08;;;;;;;10.57;4.40;;;25.20;82.40;;;;;;5047632;28;20052;-72
2022/05/17 09:46:44;;;;;;;11.40;4.75;;;25.30;79.90;;;;;;5045795;28;20041;-72
2022/05/17 09:54:54;;;;;;;10.80;3.90;;;25.30;80.30;;;;;;5047400;28;20793;-72
2022/05/17 09:57:21;;;;;;;10.18;3.80;;;25.20;76.30;;;;;;5047892;28;20102;-72
2022/05/17 09:59:49;;;;;;;13.98;3.60;;;25.50;72.10;;;;;;5047861;28;20413;-72
2022/05/17 10:02:34;;;;;;;9.95;4.30;;;25.30;71.40;;;;;;5048325;28;20120;-72
2022/05/17 10:05:14;;;;;;;5.78;3.50;;;25.50;71.70;;;;;;5048985;28;20049;-72
2022/05/17 10:07:39;;;;;;;12.13;3.72;;;25.40;65.90;;;;;;5047656;28;20049;-71
2022/05/17 10:10:20;;;;;;;9.15;3.63;;;25.50;70.90;;;;;;5048456;28;20052;-72
2022/05/17 10:12:48;;;;;;;8.30;3.70;;;25.30;68.20;;;;;;5047603;28;20143;-72
2022/05/17 10:15:15;;;;;;;11.43;3.97;;;25.60;73.50;;;;;;5046957;28;20520;-72
2022/05/17 10:17:49;;;;;;;12.05;2.95;;;25.80;66.10;;;;;;5047674;28;20119;-72
2022/05/17 10:20:30;;;;;;;7.03;3.13;;;25.70;63.20;;;;;;5044271;28;20104;-72
2022/05/17 10:23:05;;;;;;;7.75;3.13;;;25.80;65.10;;;;;;5047105;28;20053;-72
2022/05/17 10:25:31;;;;;;;10.63;3.67;;;26.10;64.90;;;;;;5048606;28;20068;-73
2022/05/17 10:28:05;;;;;;;11.30;3.85;;;26.00;63.60;;;;;;5046630;28;20155;-72
2022/05/17 10:30:50;;;;;;;11.02;3.70;;;26.30;63.40;;;;;;5028524;28;20053;-72
2022/05/17 10:33:30;;;;;;;16.08;4.53;;;26.40;64.50;;;;;;5027607;28;20057;-72
2022/05/17 10:36:01;;;;;;;10.50;4.35;;;26.50;61.80;;;;;;5027446;28;20065;-72
2022/05/17 10:38:32;;;;;;;12.05;3.75;;;26.70;61.70;;;;;;5043954;28;20052;-73
2022/05/17 10:40:58;;;;;;;7.75;3.40;;;26.60;59.40;;;;;;5050287;28;20048;-73
2022/05/17 10:43:31;;;;;;;7.15;3.00;;;26.60;58.40;;;;;;5052460;28;20448;-73
2022/05/17 10:46:20;;;;;;;9.77;3.67;;;26.60;59.00;;;;;;5051037;28;20080;-72
2022/05/17 10:48:52;;;;;;;6.18;2.85;;;26.30;56.70;;;;;;5051317;28;20045;-72
2022/05/17 10:51:35;;;;;;;11.57;3.60;;;26.40;56.20;;;;;;5052230;28;20041;-72
2022/05/17 10:54:16;;;;;;;10.70;3.05;;;26.50;57.30;;;;;;5050254;28;20056;-72
2022/05/17 10:56:58;;;;;;;10.20;3.40;;;26.50;57.50;;;;;;5052277;28;20041;-73
2022/05/17 10:59:29;;;;;;;10.07;2.72;;;26.60;53.80;;;;;;5052081;28;20047;-73
2022/05/17 11:02:01;;;;;;;12.75;3.72;;;26.50;57.30;;;;;;5051201;28;20102;-72
2022/05/17 11:04:35;;;;;;;11.80;3.67;;;26.30;55.40;;;;;;5050599;28;20048;-73
2022/05/17 11:07:23;;;;;;;8.27;3.35;;;26.40;57.80;;;;;;5051369;28;20084;-73
2022/05/17 11:09:59;;;;;;;6.30;3.50;;;26.30;55.10;;;;;;5051825;28;20075;-72
2022/05/17 11:12:32;;;;;;;7.25;3.35;;;26.40;57.10;;;;;;5051967;28;20452;-72
2022/05/17 11:15:12;;;;;;;21.30;3.45;;;26.40;56.10;;;;;;5051649;28;20057;-72
2022/05/17 11:18:02;;;;;;;8.88;3.72;;;26.50;56.30;;;;;;5051968;28;20057;-72
2022/05/17 11:20:38;;;;;;;12.55;3.88;;;26.60;56.00;;;;;;5051313;28;20735;-73
2022/05/17 11:23:24;;;;;;;8.80;3.20;;;26.60;54.90;;;;;;5049831;28;20101;-72
2022/05/17 11:26:09;;;;;;;8.23;3.67;;;26.70;56.90;;;;;;5048009;28;20036;-73
2022/05/17 11:28:42;;;;;;;9.88;3.33;;;26.90;56.10;;;;;;5049187;28;20119;-73
2022/05/17 11:31:13;;;;;;;7.97;3.67;;;26.90;56.80;;;;;;5049931;28;20060;-72
2022/05/17 11:33:41;;;;;;;14.55;4.10;;;27.10;55.90;;;;;;5050311;28;20091;-73
2022/05/17 11:36:09;;;;;;;;;;;27.00;56.00;;;;;;5050781;28;20045;-73
2022/05/17 11:38:37;;;;;;;5.50;3.28;;;27.00;55.60;;;;;;5049785;28;19924;-73
2022/05/17 11:41:21;;;;;;;17.10;3.70;;;27.10;55.80;;;;;;5050290;28;20049;-73
2022/05/17 11:43:55;;;;;;;7.85;3.97;;;27.00;55.00;;;;;;5050524;28;20068;-72
2022/05/17 11:46:24;;;;;;;10.55;4.15;;;26.90;54.80;;;;;;5050539;28;20078;-72
2022/05/17 11:49:19;;;;;;;9.77;3.30;;;26.60;55.70;;;;;;5044368;28;20045;-73
2022/05/17 11:52:01;;;;;;;8.77;2.95;;;26.90;55.10;;;;;;5049425;28;20410;-71
2022/05/17 11:54:42;;;;;;;11.07;4.18;;;27.00;53.20;;;;;;5049936;28;20406;-72
2022/05/17 11:57:23;;;;;;;11.05;3.60;;;27.00;54.20;;;;;;5049820;28;20410;-72
2022/05/17 11:59:57;;;;;;;22.90;4.20;;;27.00;55.30;;;;;;5051007;28;20160;-72
2022/05/17 12:02:52;;;;;;;12.00;3.50;;;26.80;54.50;;;;;;5049048;28;20048;-72
2022/05/17 12:05:47;;;;;;;8.43;3.53;;;26.70;54.50;;;;;;5050499;28;20040;-72
2022/05/17 12:08:35;;;;;;;7.65;3.65;;;26.80;53.80;;;;;;5049619;28;20413;-72
2022/05/17 12:11:09;;;;;;;9.25;3.55;;;27.00;54.70;;;;;;5048777;28;20510;-71
2022/05/17 12:13:41;;;;;;;7.50;3.50;;;27.10;51.30;;;;;;5049876;28;20049;-71
2022/05/17 12:16:11;;;;;;;9.07;4.18;;;27.00;53.40;;;;;;5048081;28;20510;-72
2022/05/17 12:18:59;;;;;;;11.60;4.55;;;26.90;54.60;;;;;;5048919;28;20055;-71
2022/05/17 12:22:03;;;;;;;17.15;4.55;;;27.00;54.60;;;;;;5048148;28;20040;-71
2022/05/17 12:24:56;;;;;;;10.73;5.32;;;27.00;54.10;;;;;;5050761;28;20420;-71
2022/05/17 12:27:28;;;;;;;15.63;4.57;;;27.10;54.30;;;;;;5050657;28;20041;-71
2022/05/17 12:33:04;;;;;;;18.13;4.68;;;26.80;53.20;;;;;;5049247;28;20088;-72
2022/05/17 12:35:30;;;;;;;13.68;5.13;;;26.70;53.60;;;;;;5050111;28;20106;-72
2022/05/17 12:37:56;;;;;;;15.05;4.50;;;26.50;54.10;;;;;;5050403;28;20053;-71
2022/05/17 12:43:14;;;;;;;25.63;6.35;;;26.30;56.00;;;;;;5050101;28;20410;-71
2022/05/17 12:45:46;;;;;;;10.40;4.57;;;26.50;57.40;;;;;;5046825;28;20103;-75
2022/05/17 12:48:26;;;;;;;7.55;3.85;;;26.70;57.20;;;;;;5047891;28;20057;-70
2022/05/17 12:50:56;;;;;;;19.92;5.47;;;27.00;56.70;;;;;;5033635;28;20084;-69
2022/05/17 12:53:44;;;;;;;10.50;5.13;;;27.00;56.90;;;;;;5030027;28;20128;-68
2022/05/17 12:56:29;;;;;;;15.68;5.32;;;26.80;55.60;;;;;;5048164;28;20041;-70
2022/05/17 12:58:57;;;;;;;6.47;4.53;;;26.50;56.30;;;;;;5049410;28;20048;-71
2022/05/17 13:01:27;;;;;;;10.02;4.40;;;26.50;56.90;;;;;;5049626;28;20543;-69
2022/05/17 13:03:55;;;;;;;15.77;5.65;;;26.50;56.90;;;;;;5048833;28;20045;-71
2022/05/17 13:06:21;;;;;;;19.35;7.55;;;26.50;57.20;;;;;;5048416;28;20052;-71
2022/05/17 13:08:47;;;;;;;21.33;7.18;;;26.50;57.60;;;;;;5050727;28;20059;-68
2022/05/17 13:11:26;;;;;;;15.75;6.70;;;26.50;57.50;;;;;;5049401;28;20171;-69
2022/05/17 13:14:34;;;;;;;20.98;6.25;;;26.50;57.90;;;;;;5049431;28;20041;-69